createdAt,value
2022-11-05T00:05:21.331Z,76.79
2022-11-05T00:14:02.812Z,76.75
2022-11-05T00:22:44.848Z,76.66
2022-11-05T00:31:09.931Z,76.86
2022-11-05T00:39:32.743Z,76.85
2022-11-05T00:48:14.502Z,76.67
2022-11-05T00:56:37.318Z,76.70
2022-11-05T01:05:02.100Z,76.61
2022-11-05T01:13:27.975Z,76.70
2022-11-05T01:21:50.756Z,76.67
2022-11-05T01:30:14.166Z,76.87
2022-11-05T01:38:37.854Z,76.59
2022-11-05T01:47:01.001Z,76.68
2022-11-05T01:55:28.138Z,76.70
2022-11-05T02:03:55.273Z,76.48
2022-11-05T02:12:19.087Z,76.67
2022-11-05T02:20:51.843Z,76.57
2022-11-05T02:29:52.789Z,76.73
2022-11-05T02:38:34.826Z,76.70
2022-11-05T02:47:11.864Z,76.83
2022-11-05T02:55:55.588Z,76.76
2022-11-05T03:04:20.223Z,76.90
2022-11-05T03:12:47.563Z,76.59
2022-11-05T03:21:50.988Z,76.64
2022-11-05T03:30:16.132Z,76.72
2022-11-05T03:38:44.998Z,76.81
2022-11-05T03:47:14.136Z,76.80
2022-11-05T03:55:46.557Z,76.86
2022-11-05T04:04:10.355Z,76.94
2022-11-05T04:12:52.756Z,76.88
2022-11-05T04:21:34.345Z,76.90
2022-11-05T04:30:15.512Z,76.85
2022-11-05T04:38:38.420Z,76.87
2022-11-05T04:47:02.341Z,76.81
2022-11-05T04:55:25.993Z,76.88
2022-11-05T05:03:50.611Z,77.03
2022-11-05T05:12:13.514Z,76.86
2022-11-05T05:20:54.699Z,77.03
2022-11-05T05:29:17.988Z,76.84
2022-11-05T05:37:40.908Z,76.86
2022-11-05T05:46:05.915Z,76.97
2022-11-05T05:54:32.720Z,76.96
2022-11-05T06:02:57.209Z,76.99
2022-11-05T06:11:20.631Z,76.95
2022-11-05T06:19:43.479Z,77.03
2022-11-05T06:28:07.537Z,77.09
2022-11-05T06:36:30.426Z,76.99
2022-11-05T06:44:53.420Z,77.14
2022-11-05T06:53:16.273Z,76.93
2022-11-05T07:01:39.337Z,76.86
2022-11-05T07:10:02.604Z,77.02
2022-11-05T07:18:25.532Z,77.05
2022-11-05T07:26:48.445Z,77.05
2022-11-05T07:35:12.210Z,77.12
2022-11-05T07:43:35.061Z,77.37
2022-11-05T07:51:58.118Z,77.32
2022-11-05T08:00:23.929Z,77.41
2022-11-05T08:08:46.992Z,77.44
2022-11-05T08:17:10.827Z,77.41
2022-11-05T08:25:35.877Z,77.72
2022-11-05T08:34:02.497Z,77.71
2022-11-05T08:42:25.782Z,77.47
2022-11-05T08:50:49.451Z,77.56
2022-11-05T08:59:12.282Z,77.72
2022-11-05T09:07:35.461Z,77.83
2022-11-05T09:15:59.874Z,77.81
2022-11-05T09:24:22.710Z,77.69
2022-11-05T09:32:45.801Z,77.71
2022-11-05T09:41:19.730Z,77.96
2022-11-05T09:49:48.104Z,77.85
2022-11-05T09:58:23.257Z,77.84
2022-11-05T10:07:01.760Z,77.89
2022-11-05T10:15:32.699Z,77.97
2022-11-05T10:23:56.190Z,77.97
2022-11-05T10:32:38.538Z,78.02
2022-11-05T10:41:07.585Z,78.05
2022-11-05T10:49:49.137Z,77.71
2022-11-05T10:58:17.814Z,77.89
2022-11-05T11:06:49.773Z,77.69
2022-11-05T11:15:23.881Z,78.04
2022-11-05T11:23:58.877Z,78.01
2022-11-05T11:32:24.766Z,77.95
2022-11-05T11:40:47.838Z,77.99
2022-11-05T11:49:32.638Z,78.07
2022-11-05T11:58:06.900Z,77.99
2022-11-05T12:06:40.245Z,78.08
2022-11-05T12:15:24.576Z,78.08
2022-11-05T12:24:02.910Z,78.26
2022-11-05T12:32:34.764Z,77.99
2022-11-05T12:41:09.546Z,77.91
2022-11-05T12:49:53.320Z,77.92
2022-11-05T12:58:31.229Z,77.95
2022-11-05T13:06:56.582Z,78.07
2022-11-05T13:15:27.802Z,78.11
2022-11-05T13:23:55.453Z,78.12
2022-11-05T13:32:30.967Z,78.20
2022-11-05T13:41:20.108Z,78.04
2022-11-05T13:50:01.326Z,78.11
2022-11-05T13:58:33.253Z,78.22
2022-11-05T14:07:07.024Z,78.27
2022-11-05T14:15:30.983Z,78.34
2022-11-05T14:23:57.828Z,78.22
2022-11-05T14:32:20.763Z,78.28
2022-11-05T14:40:46.135Z,78.53
2022-11-05T14:49:18.493Z,78.44
2022-11-05T14:57:44.051Z,78.27
2022-11-05T15:06:25.115Z,78.32
2022-11-05T15:14:57.415Z,78.38
2022-11-05T15:23:29.380Z,78.56
2022-11-05T15:31:53.217Z,78.56
2022-11-05T15:40:27.680Z,78.68
2022-11-05T15:48:53.134Z,78.61
2022-11-05T15:57:23.441Z,78.70
2022-11-05T16:05:48.892Z,78.70
2022-11-05T16:14:20.980Z,78.67
2022-11-05T16:22:45.875Z,78.75
2022-11-05T16:31:08.753Z,78.52
2022-11-05T16:39:32.330Z,78.59
2022-11-05T16:47:55.228Z,78.81
2022-11-05T16:56:21.542Z,78.82
2022-11-05T17:04:44.465Z,78.54
2022-11-05T17:13:14.360Z,78.56
2022-11-05T17:21:37.401Z,78.90
2022-11-05T17:30:00.416Z,78.75
2022-11-05T17:38:25.604Z,78.79
2022-11-05T17:46:48.804Z,78.75
2022-11-05T17:55:16.957Z,78.84
2022-11-05T18:03:40.403Z,78.90
2022-11-05T18:12:04.202Z,78.89
2022-11-05T18:20:27.540Z,78.84
2022-11-05T18:28:50.360Z,78.91
2022-11-05T18:37:13.294Z,79.10
2022-11-05T18:45:36.156Z,79.14
2022-11-05T18:54:00.877Z,78.80
2022-11-05T19:02:24.492Z,79.03
2022-11-05T19:10:51.516Z,79.13
2022-11-05T19:19:14.736Z,79.08
2022-11-05T19:27:38.744Z,79.14
2022-11-05T19:36:06.279Z,79.34
2022-11-05T19:44:29.233Z,79.37
2022-11-05T19:52:52.575Z,79.33
2022-11-05T20:01:17.793Z,79.33
2022-11-05T20:09:42.011Z,79.26
2022-11-05T20:18:06.808Z,79.20
2022-11-05T20:26:30.264Z,79.24
2022-11-05T20:34:53.663Z,79.42
2022-11-05T20:43:19.325Z,79.31
2022-11-05T20:51:42.173Z,79.35
2022-11-05T21:00:07.411Z,79.42
2022-11-05T21:08:30.545Z,79.58
2022-11-05T21:16:53.402Z,79.40
2022-11-05T21:25:16.691Z,79.46
2022-11-05T21:33:40.821Z,79.36
2022-11-05T21:42:05.247Z,79.49
2022-11-05T21:50:47.493Z,79.56
2022-11-05T21:59:31.228Z,79.60
2022-11-05T22:07:54.192Z,79.58
2022-11-05T22:16:17.110Z,79.56
2022-11-05T22:24:41.229Z,79.58
2022-11-05T22:33:04.185Z,79.72
2022-11-05T22:41:27.423Z,79.66
2022-11-05T22:49:50.931Z,79.71
2022-11-05T22:58:14.089Z,79.74
2022-11-05T23:06:56.187Z,79.77
2022-11-05T23:15:37.824Z,79.91
2022-11-05T23:24:04.345Z,79.73
2022-11-05T23:32:29.891Z,79.92
2022-11-05T23:41:15.930Z,79.87
2022-11-05T23:49:39.084Z,79.79
2022-11-05T23:58:02.552Z,79.67
